sensor_id;sensor_type;location;lat;lon;timestamp;pressure;altitude;pressure_sealevel;temperature;humidity
6829;BME280;17930;48.592;8.868;2023-02-16T00:00:54;97798.19;;;-0.39;100.00
6829;BME280;17930;48.592;8.868;2023-02-16T00:03:22;97795.97;;;-0.42;100.00
6829;BME280;17930;48.592;8.868;2023-02-16T00:05:49;97805.31;;;-0.20;100.00
6829;BME280;17930;48.592;8.868;2023-02-16T00:08:15;97789.03;;;0.22;100.00
6829;BME280;17930;48.592;8.868;2023-02-16T00:10:42;97794.25;;;0.29;100.00
6829;BME280;17930;48.592;8.868;2023-02-16T00:13:30;97788.94;;;0.30;100.00
6829;BME280;17930;48.592;8.868;2023-02-16T00:16:17;97791.97;;;0.19;100.00
6829;BME280;17930;48.592;8.868;2023-02-16T00:18:46;97795.47;;;-0.02;100.00
6829;BME280;17930;48.592;8.868;2023-02-16T00:21:13;97799.13;;;-0.26;100.00
6829;BME280;17930;48.592;8.868;2023-02-16T00:23:40;97803.84;;;-0.44;100.00
6829;BME280;17930;48.592;8.868;2023-02-16T00:26:13;97801.34;;;-0.37;100.00
6829;BME280;17930;48.592;8.868;2023-02-16T00:28:41;97797.19;;;-0.52;100.00
6829;BME280;17930;48.592;8.868;2023-02-16T00:31:14;97803.72;;;-0.50;100.00
6829;BME280;17930;48.592;8.868;2023-02-16T00:33:41;97803.91;;;-0.52;100.00
6829;BME280;17930;48.592;8.868;2023-02-16T00:36:09;97810.28;;;-0.62;100.00
6829;BME280;17930;48.592;8.868;2023-02-16T00:38:36;97818.56;;;-0.60;100.00
6829;BME280;17930;48.592;8.868;2023-02-16T00:41:03;97813.25;;;-0.73;100.00
6829;BME280;17930;48.592;8.868;2023-02-16T00:43:30;97812.03;;;-0.77;100.00
6829;BME280;17930;48.592;8.868;2023-02-16T00:45:56;97816.44;;;-0.71;100.00
6829;BME280;17930;48.592;8.868;2023-02-16T00:48:23;97818.56;;;-0.60;100.00
6829;BME280;17930;48.592;8.868;2023-02-16T00:50:50;97816.63;;;-0.58;100.00
6829;BME280;17930;48.592;8.868;2023-02-16T00:53:18;97809.38;;;-0.69;100.00
6829;BME280;17930;48.592;8.868;2023-02-16T00:55:44;97813.25;;;-0.73;100.00
6829;BME280;17930;48.592;8.868;2023-02-16T00:58:16;97814.75;;;-0.78;100.00
6829;BME280;17930;48.592;8.868;2023-02-16T01:00:49;97810.22;;;-0.91;100.00
6829;BME280;17930;48.592;8.868;2023-02-16T01:03:18;97809.00;;;-0.95;100.00
6829;BME280;17930;48.592;8.868;2023-02-16T01:05:46;97806.78;;;-0.98;100.00
6829;BME280;17930;48.592;8.868;2023-02-16T01:08:14;97811.97;;;-1.05;100.00
6829;BME280;17930;48.592;8.868;2023-02-16T01:11:02;97812.75;;;-1.19;100.00
6829;BME280;17930;48.592;8.868;2023-02-16T01:13:38;97813.13;;;-1.30;100.00
6829;BME280;17930;48.592;8.868;2023-02-16T01:16:14;97810.06;;;-1.26;100.00
6829;BME280;17930;48.592;8.868;2023-02-16T01:18:41;97820.97;;;-1.32;100.00
6829;BME280;17930;48.592;8.868;2023-02-16T01:21:08;97814.16;;;-1.39;100.00
6829;BME280;17930;48.592;8.868;2023-02-16T01:23:35;97814.53;;;-1.42;100.00
6829;BME280;17930;48.592;8.868;2023-02-16T01:26:04;97804.06;;;-1.33;100.00
6829;BME280;17930;48.592;8.868;2023-02-16T01:28:33;97811.09;;;-1.12;100.00
6829;BME280;17930;48.592;8.868;2023-02-16T01:31:01;97805.41;;;-1.22;100.00
6829;BME280;17930;48.592;8.868;2023-02-16T01:33:28;97801.53;;;-1.18;100.00
6829;BME280;17930;48.592;8.868;2023-02-16T01:35:55;97803.72;;;-1.30;100.00
6829;BME280;17930;48.592;8.868;2023-02-16T01:38:24;97799.72;;;-1.32;100.00
6829;BME280;17930;48.592;8.868;2023-02-16T01:40:58;97798.69;;;-1.23;100.00
6829;BME280;17930;48.592;8.868;2023-02-16T01:43:37;97796.78;;;-1.21;100.00
6829;BME280;17930;48.592;8.868;2023-02-16T01:46:11;97796.50;;;-1.26;100.00
6829;BME280;17930;48.592;8.868;2023-02-16T01:48:39;97793.84;;;-1.33;100.00
6829;BME280;17930;48.592;8.868;2023-02-16T01:51:13;97795.88;;;-1.28;100.00
6829;BME280;17930;48.592;8.868;2023-02-16T01:53:46;97786.94;;;-1.32;100.00
6829;BME280;17930;48.592;8.868;2023-02-16T01:56:23;97795.31;;;-1.38;100.00
6829;BME280;17930;48.592;8.868;2023-02-16T01:59:01;97785.75;;;-1.44;100.00
6829;BME280;17930;48.592;8.868;2023-02-16T02:01:41;97788.47;;;-1.46;100.00
6829;BME280;17930;48.592;8.868;2023-02-16T02:04:12;97788.66;;;-1.47;100.00
6829;BME280;17930;48.592;8.868;2023-02-16T02:06:57;97780.19;;;-1.25;100.00
6829;BME280;17930;48.592;8.868;2023-02-16T02:09:27;97787.47;;;-0.86;100.00
6829;BME280;17930;48.592;8.868;2023-02-16T02:12:02;97791.00;;;-0.87;100.00
6829;BME280;17930;48.592;8.868;2023-02-16T02:14:37;97783.84;;;-0.91;100.00
6829;BME280;17930;48.592;8.868;2023-02-16T02:17:06;97785.75;;;-1.07;100.00
6829;BME280;17930;48.592;8.868;2023-02-16T02:19:44;97779.97;;;-1.02;100.00
6829;BME280;17930;48.592;8.868;2023-02-16T02:22:43;97775.63;;;-1.15;100.00
6829;BME280;17930;48.592;8.868;2023-02-16T02:25:53;97772.53;;;-1.11;100.00
6829;BME280;17930;48.592;8.868;2023-02-16T02:28:37;97782.09;;;-1.27;100.00
6829;BME280;17930;48.592;8.868;2023-02-16T02:31:14;97782.94;;;-1.49;100.00
6829;BME280;17930;48.592;8.868;2023-02-16T02:33:52;97766.53;;;-1.40;100.00
6829;BME280;17930;48.592;8.868;2023-02-16T02:36:29;97763.81;;;-1.39;100.00
6829;BME280;17930;48.592;8.868;2023-02-16T02:39:09;97761.91;;;-1.37;100.00
6829;BME280;17930;48.592;8.868;2023-02-16T02:41:49;97761.78;;;-1.43;100.00
6829;BME280;17930;48.592;8.868;2023-02-16T02:44:33;97751.34;;;-1.56;100.00
6829;BME280;17930;48.592;8.868;2023-02-16T02:47:03;97755.38;;;-1.61;100.00
6829;BME280;17930;48.592;8.868;2023-02-16T02:49:30;97755.31;;;-1.53;100.00
6829;BME280;17930;48.592;8.868;2023-02-16T02:51:57;97752.38;;;-1.65;100.00
6829;BME280;17930;48.592;8.868;2023-02-16T02:54:27;97762.66;;;-1.73;100.00
6829;BME280;17930;48.592;8.868;2023-02-16T02:57:15;97762.88;;;-1.60;100.00
6829;BME280;17930;48.592;8.868;2023-02-16T03:00:06;97763.22;;;-1.63;100.00
6829;BME280;17930;48.592;8.868;2023-02-16T03:02:54;97757.72;;;-1.74;100.00
6829;BME280;17930;48.592;8.868;2023-02-16T03:05:26;97752.38;;;-1.65;100.00
6829;BME280;17930;48.592;8.868;2023-02-16T03:07:58;97759.41;;;-1.67;100.00
6829;BME280;17930;48.592;8.868;2023-02-16T03:10:32;97755.88;;;-1.66;100.00
6829;BME280;17930;48.592;8.868;2023-02-16T03:13:22;97758.19;;;-1.71;100.00
6829;BME280;17930;48.592;8.868;2023-02-16T03:15:53;97762.03;;;-1.75;100.00
6829;BME280;17930;48.592;8.868;2023-02-16T03:18:23;97764.84;;;-1.70;100.00
6829;BME280;17930;48.592;8.868;2023-02-16T03:21:10;97761.34;;;-1.69;100.00
6829;BME280;17930;48.592;8.868;2023-02-16T03:23:57;97751.69;;;-1.59;100.00
6829;BME280;17930;48.592;8.868;2023-02-16T03:26:42;97760.88;;;-1.50;100.00
6829;BME280;17930;48.592;8.868;2023-02-16T03:29:27;97759.97;;;-1.57;100.00
6829;BME280;17930;48.592;8.868;2023-02-16T03:31:56;97751.34;;;-1.56;100.00
6829;BME280;17930;48.592;8.868;2023-02-16T03:34:23;97761.47;;;-1.62;100.00
6829;BME280;17930;48.592;8.868;2023-02-16T03:36:53;97765.69;;;-1.69;100.00
6829;BME280;17930;48.592;8.868;2023-02-16T03:39:23;97758.97;;;-1.48;100.00
6829;BME280;17930;48.592;8.868;2023-02-16T03:41:52;97755.91;;;-1.29;100.00
6829;BME280;17930;48.592;8.868;2023-02-16T03:44:20;97760.28;;;-1.38;100.00
6829;BME280;17930;48.592;8.868;2023-02-16T03:46:47;97758.25;;;-1.42;100.00
6829;BME280;17930;48.592;8.868;2023-02-16T03:49:15;97759.63;;;-1.54;100.00
6829;BME280;17930;48.592;8.868;2023-02-16T03:51:42;97760.66;;;-1.63;100.00
6829;BME280;17930;48.592;8.868;2023-02-16T03:54:09;97761.41;;;-1.54;100.00
6829;BME280;17930;48.592;8.868;2023-02-16T03:56:36;97773.09;;;-1.60;100.00
6829;BME280;17930;48.592;8.868;2023-02-16T03:59:02;97774.09;;;-1.61;100.00
6829;BME280;17930;48.592;8.868;2023-02-16T04:01:29;97760.56;;;-1.69;100.00
6829;BME280;17930;48.592;8.868;2023-02-16T04:03:56;97772.25;;;-1.75;100.00
6829;BME280;17930;48.592;8.868;2023-02-16T04:06:24;97773.22;;;-1.76;100.00
6829;BME280;17930;48.592;8.868;2023-02-16T04:08:51;97779.97;;;-1.83;100.00
6829;BME280;17930;48.592;8.868;2023-02-16T04:11:18;97778.72;;;-1.87;100.00
6829;BME280;17930;48.592;8.868;2023-02-16T04:14:03;97781.22;;;-1.79;100.00
6829;BME280;17930;48.592;8.868;2023-02-16T04:16:29;97783.09;;;-1.73;100.00
6829;BME280;17930;48.592;8.868;2023-02-16T04:18:56;97780.53;;;-1.73;100.00
6829;BME280;17930;48.592;8.868;2023-02-16T04:21:24;97782.81;;;-1.78;100.00
6829;BME280;17930;48.592;8.868;2023-02-16T04:23:50;97780.31;;;-1.86;100.00
6829;BME280;17930;48.592;8.868;2023-02-16T04:26:17;97773.50;;;-1.93;100.00
6829;BME280;17930;48.592;8.868;2023-02-16T04:28:44;97778.31;;;-1.98;100.00
6829;BME280;17930;48.592;8.868;2023-02-16T04:31:10;97783.38;;;-1.90;100.00
6829;BME280;17930;48.592;8.868;2023-02-16T04:33:37;97789.59;;;-1.93;100.00
6829;BME280;17930;48.592;8.868;2023-02-16T04:36:04;97793.00;;;-2.00;100.00
6829;BME280;17930;48.592;8.868;2023-02-16T04:38:32;97783.56;;;-2.00;100.00
6829;BME280;17930;48.592;8.868;2023-02-16T04:40:59;97776.09;;;-2.01;100.00
6829;BME280;17930;48.592;8.868;2023-02-16T04:43:26;97779.50;;;-2.08;100.00
6829;BME280;17930;48.592;8.868;2023-02-16T04:45:52;97782.41;;;-2.19;100.00
6829;BME280;17930;48.592;8.868;2023-02-16T04:48:19;97778.59;;;-2.23;100.00
6829;BME280;17930;48.592;8.868;2023-02-16T04:50:45;97782.91;;;-2.24;100.00
6829;BME280;17930;48.592;8.868;2023-02-16T04:53:12;97784.63;;;-2.16;100.00
6829;BME280;17930;48.592;8.868;2023-02-16T04:55:44;97788.34;;;-1.97;100.00
6829;BME280;17930;48.592;8.868;2023-02-16T04:58:11;97784.63;;;-1.86;100.00
6829;BME280;17930;48.592;8.868;2023-02-16T05:00:37;97789.84;;;-1.80;100.00
6829;BME280;17930;48.592;8.868;2023-02-16T05:03:04;97785.53;;;-2.02;100.00
6829;BME280;17930;48.592;8.868;2023-02-16T05:05:31;97780.81;;;-2.20;100.00
6829;BME280;17930;48.592;8.868;2023-02-16T05:07:59;97790.44;;;-2.30;100.00
6829;BME280;17930;48.592;8.868;2023-02-16T05:10:26;97788.53;;;-2.36;100.00
6829;BME280;17930;48.592;8.868;2023-02-16T05:12:54;97787.94;;;-2.46;100.00
6829;BME280;17930;48.592;8.868;2023-02-16T05:15:39;97788.44;;;-2.51;100.00
6829;BME280;17930;48.592;8.868;2023-02-16T05:18:05;97790.84;;;-2.49;100.00
6829;BME280;17930;48.592;8.868;2023-02-16T05:20:32;97788.13;;;-2.48;100.00
6829;BME280;17930;48.592;8.868;2023-02-16T05:23:16;97795.00;;;-2.56;100.00
6829;BME280;17930;48.592;8.868;2023-02-16T05:25:43;97798.53;;;-2.57;100.00
6829;BME280;17930;48.592;8.868;2023-02-16T05:28:11;97801.88;;;-2.49;100.00
6829;BME280;17930;48.592;8.868;2023-02-16T05:30:37;97802.31;;;-2.45;100.00
6829;BME280;17930;48.592;8.868;2023-02-16T05:33:04;97794.13;;;-2.03;100.00
6829;BME280;17930;48.592;8.868;2023-02-16T05:35:32;97797.13;;;-1.24;100.00
6829;BME280;17930;48.592;8.868;2023-02-16T05:37:58;97797.69;;;-1.14;100.00
6829;BME280;17930;48.592;8.868;2023-02-16T05:40:25;97792.75;;;-1.02;100.00
6829;BME280;17930;48.592;8.868;2023-02-16T05:42:52;97783.88;;;-0.77;100.00
6829;BME280;17930;48.592;8.868;2023-02-16T05:45:20;97791.66;;;-0.70;100.00
6829;BME280;17930;48.592;8.868;2023-02-16T05:47:47;97797.09;;;-0.88;100.00
6829;BME280;17930;48.592;8.868;2023-02-16T05:50:14;97792.41;;;-0.99;100.00
6829;BME280;17930;48.592;8.868;2023-02-16T05:52:41;97797.75;;;-1.08;100.00
6829;BME280;17930;48.592;8.868;2023-02-16T05:55:10;97797.22;;;-1.40;100.00
6829;BME280;17930;48.592;8.868;2023-02-16T05:57:40;97804.72;;;-1.16;100.00
6829;BME280;17930;48.592;8.868;2023-02-16T06:00:08;97800.09;;;-0.84;100.00
6829;BME280;17930;48.592;8.868;2023-02-16T06:02:36;97798.25;;;-0.90;100.00
6829;BME280;17930;48.592;8.868;2023-02-16T06:05:06;97801.66;;;-1.34;100.00
6829;BME280;17930;48.592;8.868;2023-02-16T06:07:35;97809.28;;;-1.71;100.00
6829;BME280;17930;48.592;8.868;2023-02-16T06:10:02;97811.38;;;-1.74;100.00
6829;BME280;17930;48.592;8.868;2023-02-16T06:12:31;97819.91;;;-1.82;100.00
6829;BME280;17930;48.592;8.868;2023-02-16T06:15:03;97829.22;;;-1.97;100.00
6829;BME280;17930;48.592;8.868;2023-02-16T06:17:30;97818.94;;;-1.81;100.00
6829;BME280;17930;48.592;8.868;2023-02-16T06:19:58;97825.03;;;-1.90;100.00
6829;BME280;17930;48.592;8.868;2023-02-16T06:22:25;97821.72;;;-1.98;100.00
6829;BME280;17930;48.592;8.868;2023-02-16T06:24:55;97823.50;;;-1.99;100.00
6829;BME280;17930;48.592;8.868;2023-02-16T06:27:22;97830.84;;;-2.04;100.00
6829;BME280;17930;48.592;8.868;2023-02-16T06:29:49;97830.91;;;-2.11;100.00
6829;BME280;17930;48.592;8.868;2023-02-16T06:32:15;97843.41;;;-2.24;100.00
6829;BME280;17930;48.592;8.868;2023-02-16T06:34:42;97826.78;;;-2.20;100.00
6829;BME280;17930;48.592;8.868;2023-02-16T06:37:11;97831.56;;;-2.17;100.00
6829;BME280;17930;48.592;8.868;2023-02-16T06:39:37;97826.72;;;-2.04;100.00
6829;BME280;17930;48.592;8.868;2023-02-16T06:42:04;97835.59;;;-1.93;100.00
6829;BME280;17930;48.592;8.868;2023-02-16T06:44:31;97830.94;;;-1.59;100.00
6829;BME280;17930;48.592;8.868;2023-02-16T06:46:57;97832.91;;;-1.69;100.00
6829;BME280;17930;48.592;8.868;2023-02-16T06:49:24;97828.34;;;-1.81;100.00
6829;BME280;17930;48.592;8.868;2023-02-16T06:51:54;97826.50;;;-1.65;100.00
6829;BME280;17930;48.592;8.868;2023-02-16T06:54:22;97831.34;;;-1.25;100.00
6829;BME280;17930;48.592;8.868;2023-02-16T06:56:49;97833.31;;;-1.13;100.00
6829;BME280;17930;48.592;8.868;2023-02-16T06:59:16;97829.56;;;-0.88;100.00
6829;BME280;17930;48.592;8.868;2023-02-16T07:01:42;97826.75;;;-0.93;100.00
6829;BME280;17930;48.592;8.868;2023-02-16T07:04:11;97828.94;;;-1.04;100.00
6829;BME280;17930;48.592;8.868;2023-02-16T07:06:38;97835.31;;;-1.23;100.00
6829;BME280;17930;48.592;8.868;2023-02-16T07:09:05;97833.59;;;-1.30;100.00
6829;BME280;17930;48.592;8.868;2023-02-16T07:11:33;97830.44;;;-1.32;100.00
6829;BME280;17930;48.592;8.868;2023-02-16T07:14:01;97842.25;;;-1.31;100.00
6829;BME280;17930;48.592;8.868;2023-02-16T07:16:27;97844.38;;;-1.20;100.00
6829;BME280;17930;48.592;8.868;2023-02-16T07:18:54;97833.03;;;-1.18;100.00
6829;BME280;17930;48.592;8.868;2023-02-16T07:21:21;97834.50;;;-1.23;100.00
6829;BME280;17930;48.592;8.868;2023-02-16T07:23:47;97839.41;;;-1.14;100.00
6829;BME280;17930;48.592;8.868;2023-02-16T07:26:14;97837.91;;;-1.08;100.00
6829;BME280;17930;48.592;8.868;2023-02-16T07:28:42;97842.66;;;-0.83;100.00
6829;BME280;17930;48.592;8.868;2023-02-16T07:31:12;97838.66;;;-0.86;100.00
6829;BME280;17930;48.592;8.868;2023-02-16T07:33:39;97835.28;;;-0.86;100.00
6829;BME280;17930;48.592;8.868;2023-02-16T07:36:07;97841.50;;;-0.81;100.00
6829;BME280;17930;48.592;8.868;2023-02-16T07:38:34;97841.13;;;-0.78;100.00
6829;BME280;17930;48.592;8.868;2023-02-16T07:41:04;97846.53;;;-0.73;100.00
6829;BME280;17930;48.592;8.868;2023-02-16T07:44:11;97850.00;;;-0.66;100.00
6829;BME280;17930;48.592;8.868;2023-02-16T07:47:06;97845.41;;;0.01;100.00
6829;BME280;17930;48.592;8.868;2023-02-16T07:49:33;97839.03;;;0.12;100.00
6829;BME280;17930;48.592;8.868;2023-02-16T07:51:59;97841.41;;;0.13;100.00
6829;BME280;17930;48.592;8.868;2023-02-16T07:54:43;97848.31;;;0.13;100.00
6829;BME280;17930;48.592;8.868;2023-02-16T07:57:29;97851.03;;;0.26;100.00
6829;BME280;17930;48.592;8.868;2023-02-16T08:00:01;97848.88;;;0.29;100.00
6829;BME280;17930;48.592;8.868;2023-02-16T08:02:28;97858.69;;;0.40;100.00
6829;BME280;17930;48.592;8.868;2023-02-16T08:04:54;97856.84;;;0.55;100.00
6829;BME280;17930;48.592;8.868;2023-02-16T08:07:24;97850.63;;;0.85;100.00
6829;BME280;17930;48.592;8.868;2023-02-16T08:09:51;97854.41;;;1.09;100.00
6829;BME280;17930;48.592;8.868;2023-02-16T08:12:57;97853.66;;;1.15;100.00
6829;BME280;17930;48.592;8.868;2023-02-16T08:15:25;97857.69;;;1.24;100.00
6829;BME280;17930;48.592;8.868;2023-02-16T08:17:51;97850.56;;;1.47;100.00
6829;BME280;17930;48.592;8.868;2023-02-16T08:20:18;97849.75;;;1.74;100.00
6829;BME280;17930;48.592;8.868;2023-02-16T08:22:45;97840.47;;;2.19;100.00
6829;BME280;17930;48.592;8.868;2023-02-16T08:25:18;97835.84;;;3.58;100.00
6829;BME280;17930;48.592;8.868;2023-02-16T08:27:45;97825.47;;;5.02;100.00
6829;BME280;17930;48.592;8.868;2023-02-16T08:30:13;97831.56;;;6.15;100.00
6829;BME280;17930;48.592;8.868;2023-02-16T08:32:43;97834.53;;;6.48;100.00
6829;BME280;17930;48.592;8.868;2023-02-16T08:35:10;97840.19;;;7.26;100.00
6829;BME280;17930;48.592;8.868;2023-02-16T08:37:37;97839.28;;;8.23;100.00
6829;BME280;17930;48.592;8.868;2023-02-16T08:40:06;97840.69;;;8.70;100.00
6829;BME280;17930;48.592;8.868;2023-02-16T08:42:33;97842.34;;;9.04;100.00
6829;BME280;17930;48.592;8.868;2023-02-16T08:45:01;97833.03;;;9.08;100.00
6829;BME280;17930;48.592;8.868;2023-02-16T08:47:28;97840.09;;;9.94;100.00
6829;BME280;17930;48.592;8.868;2023-02-16T08:49:56;97847.50;;;9.64;100.00
6829;BME280;17930;48.592;8.868;2023-02-16T08:52:23;97831.69;;;10.24;100.00
6829;BME280;17930;48.592;8.868;2023-02-16T08:54:50;97841.00;;;10.63;100.00
6829;BME280;17930;48.592;8.868;2023-02-16T08:57:17;97831.16;;;10.70;100.00
6829;BME280;17930;48.592;8.868;2023-02-16T08:59:44;97832.16;;;10.64;100.00
6829;BME280;17930;48.592;8.868;2023-02-16T09:02:30;97830.47;;;11.06;100.00
6829;BME280;17930;48.592;8.868;2023-02-16T09:04:59;97825.31;;;11.16;100.00
6829;BME280;17930;48.592;8.868;2023-02-16T09:07:26;97819.94;;;11.53;100.00
6829;BME280;17930;48.592;8.868;2023-02-16T09:09:52;97825.56;;;11.45;100.00
6829;BME280;17930;48.592;8.868;2023-02-16T09:12:19;97827.06;;;11.36;100.00
6829;BME280;17930;48.592;8.868;2023-02-16T09:14:46;97825.56;;;11.45;100.00
6829;BME280;17930;48.592;8.868;2023-02-16T09:17:13;97824.53;;;11.41;100.00
6829;BME280;17930;48.592;8.868;2023-02-16T09:19:41;97828.09;;;11.35;100.00
6829;BME280;17930;48.592;8.868;2023-02-16T09:22:09;97823.94;;;11.66;100.00
6829;BME280;17930;48.592;8.868;2023-02-16T09:24:36;97826.75;;;11.59;100.00
6829;BME280;17930;48.592;8.868;2023-02-16T09:27:03;97823.25;;;11.85;100.00
6829;BME280;17930;48.592;8.868;2023-02-16T09:29:30;97825.59;;;12.27;100.00
6829;BME280;17930;48.592;8.868;2023-02-16T09:31:56;97813.25;;;13.48;100.00
6829;BME280;17930;48.592;8.868;2023-02-16T09:34:23;97812.09;;;14.19;100.00
6829;BME280;17930;48.592;8.868;2023-02-16T09:36:51;97804.78;;;15.12;92.64
6829;BME280;17930;48.592;8.868;2023-02-16T09:39:19;97812.50;;;14.50;88.86
6829;BME280;17930;48.592;8.868;2023-02-16T09:41:57;97804.44;;;14.85;86.73
6829;BME280;17930;48.592;8.868;2023-02-16T09:44:32;97801.44;;;14.58;86.48
6829;BME280;17930;48.592;8.868;2023-02-16T09:47:05;97794.88;;;14.61;85.82
6829;BME280;17930;48.592;8.868;2023-02-16T09:49:39;97805.78;;;14.30;84.94
6829;BME280;17930;48.592;8.868;2023-02-16T09:52:11;97797.97;;;14.68;87.98
6829;BME280;17930;48.592;8.868;2023-02-16T09:54:44;97805.41;;;14.99;86.68
6829;BME280;17930;48.592;8.868;2023-02-16T09:57:20;97792.94;;;15.76;84.66
6829;BME280;17930;48.592;8.868;2023-02-16T09:59:52;97786.34;;;16.01;80.29
6829;BME280;17930;48.592;8.868;2023-02-16T10:02:36;97789.09;;;15.02;84.03
6829;BME280;17930;48.592;8.868;2023-02-16T10:05:14;97789.28;;;15.43;82.56
6829;BME280;17930;48.592;8.868;2023-02-16T10:07:54;97786.13;;;15.46;83.22
6829;BME280;17930;48.592;8.868;2023-02-16T10:10:26;97781.66;;;16.22;78.76
6829;BME280;17930;48.592;8.868;2023-02-16T10:12:59;97781.38;;;16.65;74.53
6829;BME280;17930;48.592;8.868;2023-02-16T10:15:30;97785.50;;;16.52;74.62
6829;BME280;17930;48.592;8.868;2023-02-16T10:18:02;97778.69;;;17.25;71.87
6829;BME280;17930;48.592;8.868;2023-02-16T10:20:33;97779.97;;;17.72;68.28
6829;BME280;17930;48.592;8.868;2023-02-16T10:23:09;97779.78;;;17.82;67.76
6829;BME280;17930;48.592;8.868;2023-02-16T10:25:43;97771.19;;;17.90;66.18
6829;BME280;17930;48.592;8.868;2023-02-16T10:28:15;97779.38;;;17.75;66.46
6829;BME280;17930;48.592;8.868;2023-02-16T10:30:48;97778.81;;;17.15;66.93
6829;BME280;17930;48.592;8.868;2023-02-16T10:33:26;97767.59;;;18.40;65.58
6829;BME280;17930;48.592;8.868;2023-02-16T10:35:56;97775.53;;;18.40;62.36
6829;BME280;17930;48.592;8.868;2023-02-16T10:38:29;97765.06;;;18.83;62.11
6829;BME280;17930;48.592;8.868;2023-02-16T10:41:05;97766.72;;;18.31;61.71
6829;BME280;17930;48.592;8.868;2023-02-16T10:43:41;97760.84;;;18.34;61.67
6829;BME280;17930;48.592;8.868;2023-02-16T10:46:10;97755.44;;;18.87;58.93
6829;BME280;17930;48.592;8.868;2023-02-16T10:48:40;97754.16;;;19.20;58.63
6829;BME280;17930;48.592;8.868;2023-02-16T10:51:09;97751.22;;;19.21;57.74
6829;BME280;17930;48.592;8.868;2023-02-16T10:53:41;97747.97;;;19.54;58.56
6829;BME280;17930;48.592;8.868;2023-02-16T10:56:31;97752.13;;;19.99;55.53
6829;BME280;17930;48.592;8.868;2023-02-16T10:59:05;97747.22;;;20.23;56.19
6829;BME280;17930;48.592;8.868;2023-02-16T11:01:36;97753.97;;;20.46;54.43
6829;BME280;17930;48.592;8.868;2023-02-16T11:04:04;97752.75;;;19.96;55.03
6829;BME280;17930;48.592;8.868;2023-02-16T11:06:31;97738.22;;;20.57;54.03
6829;BME280;17930;48.592;8.868;2023-02-16T11:09:00;97738.75;;;20.76;53.16
6829;BME280;17930;48.592;8.868;2023-02-16T11:11:35;97740.97;;;20.19;53.77
6829;BME280;17930;48.592;8.868;2023-02-16T11:14:04;97743.00;;;19.83;54.40
6829;BME280;17930;48.592;8.868;2023-02-16T11:16:32;97731.22;;;19.89;55.04
6829;BME280;17930;48.592;8.868;2023-02-16T11:19:00;97729.31;;;20.28;53.75
6829;BME280;17930;48.592;8.868;2023-02-16T11:21:44;97715.13;;;20.33;54.38
6829;BME280;17930;48.592;8.868;2023-02-16T11:24:22;97718.03;;;20.06;54.09
6829;BME280;17930;48.592;8.868;2023-02-16T11:27:00;97712.59;;;20.28;55.11
6829;BME280;17930;48.592;8.868;2023-02-16T11:29:28;97703.75;;;20.66;55.64
6829;BME280;17930;48.592;8.868;2023-02-16T11:31:55;97704.19;;;21.27;53.81
6829;BME280;17930;48.592;8.868;2023-02-16T11:34:29;97698.00;;;22.34;52.80
6829;BME280;17930;48.592;8.868;2023-02-16T11:37:03;97694.25;;;22.96;52.18
6829;BME280;17930;48.592;8.868;2023-02-16T11:39:34;97694.91;;;23.70;49.32
6829;BME280;17930;48.592;8.868;2023-02-16T11:42:06;97694.16;;;23.25;47.21
6829;BME280;17930;48.592;8.868;2023-02-16T11:44:36;97689.47;;;24.14;46.62
6829;BME280;17930;48.592;8.868;2023-02-16T11:47:06;97687.59;;;23.90;47.86
6829;BME280;17930;48.592;8.868;2023-02-16T11:49:37;97667.53;;;24.56;46.53
6829;BME280;17930;48.592;8.868;2023-02-16T11:52:24;97664.22;;;24.47;46.64
6829;BME280;17930;48.592;8.868;2023-02-16T11:54:52;97662.53;;;24.81;45.19
6829;BME280;17930;48.592;8.868;2023-02-16T11:57:26;97664.81;;;24.68;45.05
6829;BME280;17930;48.592;8.868;2023-02-16T11:59:56;97664.53;;;24.33;44.57
6829;BME280;17930;48.592;8.868;2023-02-16T12:03:08;97661.31;;;23.33;44.75
6829;BME280;17930;48.592;8.868;2023-02-16T12:05:50;97652.56;;;23.00;45.87
6829;BME280;17930;48.592;8.868;2023-02-16T12:08:30;97653.72;;;23.11;45.47
6829;BME280;17930;48.592;8.868;2023-02-16T12:11:20;97662.53;;;23.35;44.66
6829;BME280;17930;48.592;8.868;2023-02-16T12:13:59;97653.56;;;23.08;46.86
6829;BME280;17930;48.592;8.868;2023-02-16T12:16:34;97655.38;;;23.16;45.87
6829;BME280;17930;48.592;8.868;2023-02-16T12:19:13;97651.16;;;23.71;45.46
6829;BME280;17930;48.592;8.868;2023-02-16T12:21:45;97649.94;;;22.60;45.39
6829;BME280;17930;48.592;8.868;2023-02-16T12:24:26;97645.78;;;21.27;47.89
6829;BME280;17930;48.592;8.868;2023-02-16T12:26:58;97653.09;;;21.38;47.83
6829;BME280;17930;48.592;8.868;2023-02-16T12:29:36;97638.63;;;23.71;47.61
6829;BME280;17930;48.592;8.868;2023-02-16T12:32:16;97634.97;;;23.87;44.29
6829;BME280;17930;48.592;8.868;2023-02-16T12:34:54;97639.16;;;24.00;43.23
6829;BME280;17930;48.592;8.868;2023-02-16T12:37:31;97633.63;;;21.71;45.66
6829;BME280;17930;48.592;8.868;2023-02-16T12:40:10;97629.97;;;20.26;47.49
6829;BME280;17930;48.592;8.868;2023-02-16T12:42:49;97635.56;;;19.22;50.38
6829;BME280;17930;48.592;8.868;2023-02-16T12:45:24;97640.41;;;19.20;50.04
6829;BME280;17930;48.592;8.868;2023-02-16T12:47:54;97633.63;;;19.36;50.59
6829;BME280;17930;48.592;8.868;2023-02-16T12:50:25;97635.06;;;19.97;49.64
6829;BME280;17930;48.592;8.868;2023-02-16T12:52:56;97630.03;;;19.87;49.38
6829;BME280;17930;48.592;8.868;2023-02-16T12:55:26;97622.16;;;20.21;49.91
6829;BME280;17930;48.592;8.868;2023-02-16T12:58:00;97611.38;;;20.93;47.06
6829;BME280;17930;48.592;8.868;2023-02-16T13:00:40;97607.38;;;21.70;46.64
6829;BME280;17930;48.592;8.868;2023-02-16T13:03:19;97602.16;;;20.99;46.91
6829;BME280;17930;48.592;8.868;2023-02-16T13:05:55;97604.38;;;19.96;47.84
6829;BME280;17930;48.592;8.868;2023-02-16T13:08:29;97612.16;;;20.01;48.34
6829;BME280;17930;48.592;8.868;2023-02-16T13:11:07;97605.19;;;19.50;48.93
6829;BME280;17930;48.592;8.868;2023-02-16T13:13:37;97601.56;;;20.68;48.31
6829;BME280;17930;48.592;8.868;2023-02-16T13:16:12;97600.31;;;20.07;47.76
6829;BME280;17930;48.592;8.868;2023-02-16T13:18:44;97609.53;;;20.01;48.16
6829;BME280;17930;48.592;8.868;2023-02-16T13:21:18;97604.44;;;19.19;49.03
6829;BME280;17930;48.592;8.868;2023-02-16T13:23:56;97607.00;;;18.80;48.66
6829;BME280;17930;48.592;8.868;2023-02-16T13:26:53;97612.41;;;18.97;48.56
6829;BME280;17930;48.592;8.868;2023-02-16T13:29:43;97619.22;;;18.98;48.53